sensor_id;sensor_type;location;lat;lon;timestamp;P1;durP1;ratioP1;P2;durP2;ratioP2
45011;SDS011;63444;48.148;11.542;2023-02-18T00:00:24;2.77;;;2.30;;
45011;SDS011;63444;48.148;11.542;2023-02-18T00:02:50;5.27;;;2.43;;
45011;SDS011;63444;48.148;11.542;2023-02-18T00:05:17;3.97;;;2.67;;
45011;SDS011;63444;48.148;11.542;2023-02-18T00:07:43;4.97;;;2.57;;
45011;SDS011;63444;48.148;11.542;2023-02-18T00:10:12;3.93;;;2.50;;
45011;SDS011;63444;48.148;11.542;2023-02-18T00:12:39;4.20;;;2.37;;
45011;SDS011;63444;48.148;11.542;2023-02-18T00:15:05;3.30;;;2.40;;
45011;SDS011;63444;48.148;11.542;2023-02-18T00:17:32;3.97;;;2.60;;
45011;SDS011;63444;48.148;11.542;2023-02-18T00:19:58;4.67;;;2.93;;
45011;SDS011;63444;48.148;11.542;2023-02-18T00:22:24;4.33;;;2.20;;
45011;SDS011;63444;48.148;11.542;2023-02-18T00:24:49;3.57;;;2.30;;
45011;SDS011;63444;48.148;11.542;2023-02-18T00:27:16;4.23;;;2.20;;
45011;SDS011;63444;48.148;11.542;2023-02-18T00:29:42;3.90;;;2.30;;
45011;SDS011;63444;48.148;11.542;2023-02-18T00:32:07;3.67;;;2.53;;
45011;SDS011;63444;48.148;11.542;2023-02-18T00:34:33;2.93;;;2.20;;
45011;SDS011;63444;48.148;11.542;2023-02-18T00:36:59;3.30;;;2.27;;
45011;SDS011;63444;48.148;11.542;2023-02-18T00:39:24;3.30;;;2.30;;
45011;SDS011;63444;48.148;11.542;2023-02-18T00:41:50;3.60;;;2.40;;
45011;SDS011;63444;48.148;11.542;2023-02-18T00:44:15;2.50;;;2.30;;
45011;SDS011;63444;48.148;11.542;2023-02-18T00:46:41;3.03;;;2.57;;
45011;SDS011;63444;48.148;11.542;2023-02-18T00:49:07;3.60;;;2.23;;
45011;SDS011;63444;48.148;11.542;2023-02-18T00:51:33;3.43;;;2.40;;
45011;SDS011;63444;48.148;11.542;2023-02-18T00:53:59;2.83;;;1.80;;
45011;SDS011;63444;48.148;11.542;2023-02-18T00:56:25;2.50;;;2.20;;
45011;SDS011;63444;48.148;11.542;2023-02-18T00:58:51;2.77;;;2.03;;
45011;SDS011;63444;48.148;11.542;2023-02-18T01:01:17;3.37;;;2.40;;
45011;SDS011;63444;48.148;11.542;2023-02-18T01:03:43;2.63;;;2.10;;
45011;SDS011;63444;48.148;11.542;2023-02-18T01:06:10;3.73;;;2.50;;
45011;SDS011;63444;48.148;11.542;2023-02-18T01:08:36;2.67;;;1.90;;
45011;SDS011;63444;48.148;11.542;2023-02-18T01:11:04;2.77;;;1.73;;
45011;SDS011;63444;48.148;11.542;2023-02-18T01:13:30;2.30;;;2.03;;
45011;SDS011;63444;48.148;11.542;2023-02-18T01:15:56;1.93;;;1.83;;
45011;SDS011;63444;48.148;11.542;2023-02-18T01:18:23;2.00;;;1.73;;
45011;SDS011;63444;48.148;11.542;2023-02-18T01:20:49;2.33;;;2.00;;
45011;SDS011;63444;48.148;11.542;2023-02-18T01:23:14;2.23;;;2.00;;
45011;SDS011;63444;48.148;11.542;2023-02-18T01:25:40;2.33;;;1.83;;
45011;SDS011;63444;48.148;11.542;2023-02-18T01:28:06;3.13;;;2.00;;
45011;SDS011;63444;48.148;11.542;2023-02-18T01:30:33;2.50;;;1.90;;
45011;SDS011;63444;48.148;11.542;2023-02-18T01:33:01;2.50;;;2.00;;
45011;SDS011;63444;48.148;11.542;2023-02-18T01:35:27;2.10;;;1.70;;
45011;SDS011;63444;48.148;11.542;2023-02-18T01:37:53;4.03;;;2.07;;
45011;SDS011;63444;48.148;11.542;2023-02-18T01:40:20;5.27;;;2.03;;
45011;SDS011;63444;48.148;11.542;2023-02-18T01:42:47;2.07;;;1.97;;
45011;SDS011;63444;48.148;11.542;2023-02-18T01:45:36;3.13;;;2.10;;
45011;SDS011;63444;48.148;11.542;2023-02-18T01:51:09;2.30;;;2.10;;
45011;SDS011;63444;48.148;11.542;2023-02-18T01:53:50;3.20;;;2.30;;
45011;SDS011;63444;48.148;11.542;2023-02-18T01:56:52;4.50;;;2.50;;
45011;SDS011;63444;48.148;11.542;2023-02-18T01:59:27;3.03;;;2.70;;
45011;SDS011;63444;48.148;11.542;2023-02-18T02:02:01;3.60;;;2.70;;
45011;SDS011;63444;48.148;11.542;2023-02-18T02:04:27;3.67;;;2.83;;
45011;SDS011;63444;48.148;11.542;2023-02-18T02:06:53;2.90;;;2.53;;
45011;SDS011;63444;48.148;11.542;2023-02-18T02:09:19;2.87;;;2.50;;
45011;SDS011;63444;48.148;11.542;2023-02-18T02:31:32;3.07;;;2.50;;
45011;SDS011;63444;48.148;11.542;2023-02-18T02:37:08;4.63;;;2.30;;
45011;SDS011;63444;48.148;11.542;2023-02-18T02:42:52;3.03;;;2.30;;
45011;SDS011;63444;48.148;11.542;2023-02-18T02:50:50;2.77;;;2.37;;
45011;SDS011;63444;48.148;11.542;2023-02-18T02:53:22;2.30;;;2.10;;
45011;SDS011;63444;48.148;11.542;2023-02-18T02:55:52;1.80;;;1.70;;
45011;SDS011;63444;48.148;11.542;2023-02-18T02:58:20;2.80;;;2.30;;
45011;SDS011;63444;48.148;11.542;2023-02-18T03:11:21;1.70;;;1.60;;
45011;SDS011;63444;48.148;11.542;2023-02-18T03:16:35;1.97;;;1.50;;
45011;SDS011;63444;48.148;11.542;2023-02-18T03:19:20;1.40;;;1.30;;
45011;SDS011;63444;48.148;11.542;2023-02-18T03:22:05;1.63;;;1.53;;
45011;SDS011;63444;48.148;11.542;2023-02-18T03:24:43;1.87;;;1.57;;
45011;SDS011;63444;48.148;11.542;2023-02-18T03:27:13;3.43;;;1.70;;
45011;SDS011;63444;48.148;11.542;2023-02-18T03:29:45;2.83;;;1.80;;
45011;SDS011;63444;48.148;11.542;2023-02-18T03:32:17;3.20;;;1.77;;
45011;SDS011;63444;48.148;11.542;2023-02-18T03:34:46;1.63;;;1.50;;
45011;SDS011;63444;48.148;11.542;2023-02-18T03:37:17;2.10;;;1.77;;
45011;SDS011;63444;48.148;11.542;2023-02-18T03:39:45;1.60;;;1.50;;
45011;SDS011;63444;48.148;11.542;2023-02-18T03:42:15;1.47;;;1.37;;
45011;SDS011;63444;48.148;11.542;2023-02-18T03:44:42;1.47;;;1.20;;
45011;SDS011;63444;48.148;11.542;2023-02-18T03:47:08;1.63;;;1.47;;
45011;SDS011;63444;48.148;11.542;2023-02-18T03:49:34;2.00;;;1.60;;
45011;SDS011;63444;48.148;11.542;2023-02-18T03:51:59;1.60;;;1.50;;
45011;SDS011;63444;48.148;11.542;2023-02-18T03:54:25;1.30;;;1.20;;
45011;SDS011;63444;48.148;11.542;2023-02-18T03:56:50;1.60;;;1.50;;
45011;SDS011;63444;48.148;11.542;2023-02-18T03:59:16;1.93;;;1.40;;
45011;SDS011;63444;48.148;11.542;2023-02-18T04:01:41;1.60;;;1.50;;
45011;SDS011;63444;48.148;11.542;2023-02-18T04:04:07;1.50;;;1.40;;
45011;SDS011;63444;48.148;11.542;2023-02-18T04:06:33;3.40;;;1.40;;
45011;SDS011;63444;48.148;11.542;2023-02-18T04:08:59;3.10;;;1.70;;
45011;SDS011;63444;48.148;11.542;2023-02-18T04:11:24;2.10;;;1.43;;
45011;SDS011;63444;48.148;11.542;2023-02-18T04:13:50;2.73;;;1.47;;
45011;SDS011;63444;48.148;11.542;2023-02-18T04:16:15;2.27;;;1.80;;
45011;SDS011;63444;48.148;11.542;2023-02-18T04:18:41;2.40;;;1.70;;
45011;SDS011;63444;48.148;11.542;2023-02-18T04:21:07;2.03;;;1.60;;
45011;SDS011;63444;48.148;11.542;2023-02-18T04:23:32;1.70;;;1.60;;
45011;SDS011;63444;48.148;11.542;2023-02-18T04:25:58;2.17;;;1.70;;
45011;SDS011;63444;48.148;11.542;2023-02-18T04:28:23;1.70;;;1.60;;
45011;SDS011;63444;48.148;11.542;2023-02-18T04:30:50;2.27;;;1.80;;
45011;SDS011;63444;48.148;11.542;2023-02-18T04:33:16;1.60;;;1.50;;
45011;SDS011;63444;48.148;11.542;2023-02-18T04:35:43;1.57;;;1.40;;
45011;SDS011;63444;48.148;11.542;2023-02-18T04:38:09;2.40;;;1.87;;
45011;SDS011;63444;48.148;11.542;2023-02-18T04:40:35;1.93;;;1.70;;
45011;SDS011;63444;48.148;11.542;2023-02-18T04:43:01;2.37;;;1.63;;
45011;SDS011;63444;48.148;11.542;2023-02-18T04:45:27;2.30;;;2.00;;
45011;SDS011;63444;48.148;11.542;2023-02-18T04:47:53;2.57;;;1.70;;
45011;SDS011;63444;48.148;11.542;2023-02-18T04:50:20;1.90;;;1.70;;
45011;SDS011;63444;48.148;11.542;2023-02-18T04:52:48;1.83;;;1.70;;
45011;SDS011;63444;48.148;11.542;2023-02-18T04:55:14;2.17;;;1.37;;
45011;SDS011;63444;48.148;11.542;2023-02-18T04:57:39;1.70;;;1.60;;
45011;SDS011;63444;48.148;11.542;2023-02-18T05:00:07;1.90;;;1.57;;
45011;SDS011;63444;48.148;11.542;2023-02-18T05:02:35;1.70;;;1.60;;
45011;SDS011;63444;48.148;11.542;2023-02-18T05:05:00;1.90;;;1.70;;
45011;SDS011;63444;48.148;11.542;2023-02-18T05:07:26;1.67;;;1.57;;
45011;SDS011;63444;48.148;11.542;2023-02-18T05:09:52;3.00;;;1.57;;
45011;SDS011;63444;48.148;11.542;2023-02-18T05:12:18;1.77;;;1.63;;
45011;SDS011;63444;48.148;11.542;2023-02-18T05:14:43;2.23;;;1.80;;
45011;SDS011;63444;48.148;11.542;2023-02-18T05:17:09;1.77;;;1.63;;
45011;SDS011;63444;48.148;11.542;2023-02-18T05:19:35;1.63;;;1.50;;
45011;SDS011;63444;48.148;11.542;2023-02-18T05:22:01;1.77;;;1.60;;
45011;SDS011;63444;48.148;11.542;2023-02-18T05:24:27;1.50;;;1.40;;
45011;SDS011;63444;48.148;11.542;2023-02-18T05:26:52;1.40;;;1.30;;
45011;SDS011;63444;48.148;11.542;2023-02-18T05:29:18;1.40;;;1.30;;
45011;SDS011;63444;48.148;11.542;2023-02-18T05:31:43;1.43;;;1.33;;
45011;SDS011;63444;48.148;11.542;2023-02-18T05:34:09;1.70;;;1.30;;
45011;SDS011;63444;48.148;11.542;2023-02-18T05:36:34;1.60;;;1.50;;
45011;SDS011;63444;48.148;11.542;2023-02-18T05:39:00;1.40;;;1.30;;
45011;SDS011;63444;48.148;11.542;2023-02-18T05:41:26;1.30;;;1.20;;
45011;SDS011;63444;48.148;11.542;2023-02-18T05:43:51;1.30;;;1.20;;
45011;SDS011;63444;48.148;11.542;2023-02-18T05:46:35;1.43;;;1.10;;
45011;SDS011;63444;48.148;11.542;2023-02-18T05:49:01;1.27;;;1.17;;
45011;SDS011;63444;48.148;11.542;2023-02-18T05:51:27;1.30;;;1.20;;
45011;SDS011;63444;48.148;11.542;2023-02-18T05:53:52;1.60;;;1.27;;
45011;SDS011;63444;48.148;11.542;2023-02-18T05:56:18;1.27;;;1.00;;
45011;SDS011;63444;48.148;11.542;2023-02-18T05:58:43;1.00;;;1.00;;
45011;SDS011;63444;48.148;11.542;2023-02-18T06:01:09;1.77;;;1.03;;
45011;SDS011;63444;48.148;11.542;2023-02-18T06:03:35;1.00;;;0.90;;
45011;SDS011;63444;48.148;11.542;2023-02-18T06:06:00;0.90;;;0.90;;
45011;SDS011;63444;48.148;11.542;2023-02-18T06:08:26;1.03;;;1.00;;
45011;SDS011;63444;48.148;11.542;2023-02-18T06:10:52;1.23;;;0.93;;
45011;SDS011;63444;48.148;11.542;2023-02-18T06:13:17;1.70;;;1.13;;
45011;SDS011;63444;48.148;11.542;2023-02-18T06:15:43;1.20;;;1.10;;
45011;SDS011;63444;48.148;11.542;2023-02-18T06:18:08;0.83;;;0.83;;
45011;SDS011;63444;48.148;11.542;2023-02-18T06:20:34;0.97;;;0.90;;
45011;SDS011;63444;48.148;11.542;2023-02-18T06:23:00;1.20;;;1.10;;
45011;SDS011;63444;48.148;11.542;2023-02-18T06:25:25;1.17;;;1.10;;
45011;SDS011;63444;48.148;11.542;2023-02-18T06:27:51;0.87;;;0.83;;
45011;SDS011;63444;48.148;11.542;2023-02-18T06:30:17;0.97;;;0.97;;
45011;SDS011;63444;48.148;11.542;2023-02-18T06:32:42;1.00;;;1.00;;
45011;SDS011;63444;48.148;11.542;2023-02-18T06:35:08;1.10;;;1.00;;
45011;SDS011;63444;48.148;11.542;2023-02-18T06:37:40;1.13;;;1.10;;
45011;SDS011;63444;48.148;11.542;2023-02-18T06:40:05;1.13;;;0.83;;
45011;SDS011;63444;48.148;11.542;2023-02-18T06:42:32;1.07;;;1.00;;
45011;SDS011;63444;48.148;11.542;2023-02-18T06:44:57;0.80;;;0.80;;
45011;SDS011;63444;48.148;11.542;2023-02-18T06:47:23;1.17;;;1.07;;
45011;SDS011;63444;48.148;11.542;2023-02-18T06:49:48;1.93;;;1.00;;
45011;SDS011;63444;48.148;11.542;2023-02-18T06:52:14;1.17;;;1.07;;
45011;SDS011;63444;48.148;11.542;2023-02-18T06:54:41;1.90;;;0.90;;
45011;SDS011;63444;48.148;11.542;2023-02-18T06:57:08;1.30;;;0.90;;
45011;SDS011;63444;48.148;11.542;2023-02-18T06:59:33;0.90;;;0.90;;
45011;SDS011;63444;48.148;11.542;2023-02-18T07:01:59;0.97;;;0.97;;
45011;SDS011;63444;48.148;11.542;2023-02-18T07:04:24;1.00;;;1.00;;
45011;SDS011;63444;48.148;11.542;2023-02-18T07:06:51;0.90;;;0.90;;
45011;SDS011;63444;48.148;11.542;2023-02-18T07:09:16;0.90;;;0.90;;
45011;SDS011;63444;48.148;11.542;2023-02-18T07:11:42;0.93;;;0.87;;
45011;SDS011;63444;48.148;11.542;2023-02-18T07:14:08;0.97;;;0.97;;
45011;SDS011;63444;48.148;11.542;2023-02-18T07:16:33;0.90;;;0.90;;
45011;SDS011;63444;48.148;11.542;2023-02-18T07:18:59;3.67;;;1.10;;
45011;SDS011;63444;48.148;11.542;2023-02-18T07:21:25;3.67;;;0.93;;
45011;SDS011;63444;48.148;11.542;2023-02-18T07:23:51;0.80;;;0.80;;
45011;SDS011;63444;48.148;11.542;2023-02-18T07:26:17;0.90;;;0.90;;
45011;SDS011;63444;48.148;11.542;2023-02-18T07:28:43;0.70;;;0.70;;
45011;SDS011;63444;48.148;11.542;2023-02-18T07:31:08;1.23;;;0.77;;
45011;SDS011;63444;48.148;11.542;2023-02-18T07:33:34;2.30;;;1.00;;
45011;SDS011;63444;48.148;11.542;2023-02-18T07:36:00;0.80;;;0.80;;
45011;SDS011;63444;48.148;11.542;2023-02-18T07:38:27;0.80;;;0.80;;
45011;SDS011;63444;48.148;11.542;2023-02-18T07:40:53;1.33;;;0.90;;
45011;SDS011;63444;48.148;11.542;2023-02-18T07:43:22;1.80;;;0.90;;
45011;SDS011;63444;48.148;11.542;2023-02-18T07:45:48;0.70;;;0.70;;
45011;SDS011;63444;48.148;11.542;2023-02-18T07:48:14;0.90;;;0.77;;
45011;SDS011;63444;48.148;11.542;2023-02-18T07:50:41;1.13;;;0.90;;
45011;SDS011;63444;48.148;11.542;2023-02-18T07:53:09;2.40;;;0.80;;
45011;SDS011;63444;48.148;11.542;2023-02-18T07:55:35;2.77;;;1.10;;
45011;SDS011;63444;48.148;11.542;2023-02-18T08:00:50;0.80;;;0.80;;
45011;SDS011;63444;48.148;11.542;2023-02-18T08:03:18;1.00;;;0.90;;
45011;SDS011;63444;48.148;11.542;2023-02-18T08:05:46;3.63;;;1.00;;
45011;SDS011;63444;48.148;11.542;2023-02-18T08:08:13;3.03;;;1.00;;
45011;SDS011;63444;48.148;11.542;2023-02-18T08:10:40;0.90;;;0.90;;
45011;SDS011;63444;48.148;11.542;2023-02-18T08:13:07;1.27;;;1.10;;
45011;SDS011;63444;48.148;11.542;2023-02-18T08:15:33;0.70;;;0.70;;
45011;SDS011;63444;48.148;11.542;2023-02-18T08:17:59;1.23;;;0.90;;
45011;SDS011;63444;48.148;11.542;2023-02-18T08:20:26;1.70;;;0.90;;
45011;SDS011;63444;48.148;11.542;2023-02-18T08:22:52;2.10;;;1.00;;
45011;SDS011;63444;48.148;11.542;2023-02-18T08:25:18;2.90;;;1.00;;
45011;SDS011;63444;48.148;11.542;2023-02-18T08:27:43;3.43;;;0.90;;
45011;SDS011;63444;48.148;11.542;2023-02-18T08:30:09;2.50;;;1.07;;
45011;SDS011;63444;48.148;11.542;2023-02-18T08:32:35;3.30;;;1.13;;
45011;SDS011;63444;48.148;11.542;2023-02-18T08:35:01;0.87;;;0.87;;
45011;SDS011;63444;48.148;11.542;2023-02-18T08:37:28;5.03;;;1.00;;
45011;SDS011;63444;48.148;11.542;2023-02-18T08:39:53;0.97;;;0.97;;
45011;SDS011;63444;48.148;11.542;2023-02-18T08:42:19;2.30;;;1.03;;
45011;SDS011;63444;48.148;11.542;2023-02-18T08:44:45;5.47;;;1.20;;
45011;SDS011;63444;48.148;11.542;2023-02-18T08:47:10;2.53;;;1.20;;
45011;SDS011;63444;48.148;11.542;2023-02-18T08:49:36;5.07;;;1.10;;
45011;SDS011;63444;48.148;11.542;2023-02-18T08:52:02;3.10;;;1.20;;
45011;SDS011;63444;48.148;11.542;2023-02-18T08:54:29;0.97;;;0.90;;
45011;SDS011;63444;48.148;11.542;2023-02-18T08:56:55;1.40;;;1.30;;
45011;SDS011;63444;48.148;11.542;2023-02-18T08:59:24;0.87;;;0.87;;
45011;SDS011;63444;48.148;11.542;2023-02-18T09:01:50;1.53;;;1.10;;
45011;SDS011;63444;48.148;11.542;2023-02-18T09:04:16;14.80;;;1.70;;
45011;SDS011;63444;48.148;11.542;2023-02-18T09:06:42;1.60;;;1.00;;
45011;SDS011;63444;48.148;11.542;2023-02-18T09:09:08;1.20;;;1.07;;
45011;SDS011;63444;48.148;11.542;2023-02-18T09:11:34;1.33;;;1.20;;
45011;SDS011;63444;48.148;11.542;2023-02-18T09:14:00;2.33;;;1.00;;
45011;SDS011;63444;48.148;11.542;2023-02-18T09:16:27;1.73;;;1.00;;
45011;SDS011;63444;48.148;11.542;2023-02-18T09:18:54;1.80;;;1.07;;
45011;SDS011;63444;48.148;11.542;2023-02-18T09:21:20;2.70;;;1.27;;
45011;SDS011;63444;48.148;11.542;2023-02-18T09:23:47;1.53;;;1.00;;
45011;SDS011;63444;48.148;11.542;2023-02-18T09:26:14;0.90;;;0.90;;
45011;SDS011;63444;48.148;11.542;2023-02-18T09:28:41;1.60;;;1.00;;
45011;SDS011;63444;48.148;11.542;2023-02-18T09:31:09;1.87;;;1.10;;
45011;SDS011;63444;48.148;11.542;2023-02-18T09:33:42;0.90;;;0.90;;
45011;SDS011;63444;48.148;11.542;2023-02-18T09:36:10;1.20;;;1.10;;
45011;SDS011;63444;48.148;11.542;2023-02-18T09:38:35;1.80;;;1.10;;
45011;SDS011;63444;48.148;11.542;2023-02-18T09:41:02;1.10;;;1.00;;
45011;SDS011;63444;48.148;11.542;2023-02-18T09:43:32;1.23;;;1.13;;
45011;SDS011;63444;48.148;11.542;2023-02-18T09:46:03;2.73;;;1.10;;
45011;SDS011;63444;48.148;11.542;2023-02-18T09:48:36;2.37;;;1.03;;
45011;SDS011;63444;48.148;11.542;2023-02-18T09:51:02;1.20;;;1.10;;
45011;SDS011;63444;48.148;11.542;2023-02-18T09:53:29;3.50;;;1.40;;
45011;SDS011;63444;48.148;11.542;2023-02-18T09:55:55;2.17;;;1.20;;
45011;SDS011;63444;48.148;11.542;2023-02-18T09:58:23;2.40;;;1.20;;
45011;SDS011;63444;48.148;11.542;2023-02-18T10:01:04;1.57;;;1.30;;
45011;SDS011;63444;48.148;11.542;2023-02-18T10:03:44;1.40;;;1.20;;
45011;SDS011;63444;48.148;11.542;2023-02-18T10:06:52;4.80;;;1.13;;
45011;SDS011;63444;48.148;11.542;2023-02-18T10:09:00;2.53;;;1.00;;
45011;SDS011;63444;48.148;11.542;2023-02-18T10:11:54;1.93;;;1.00;;
45011;SDS011;63444;48.148;11.542;2023-02-18T10:14:51;2.47;;;1.30;;
45011;SDS011;63444;48.148;11.542;2023-02-18T10:17:19;2.13;;;1.10;;
45011;SDS011;63444;48.148;11.542;2023-02-18T10:19:48;3.07;;;1.20;;
45011;SDS011;63444;48.148;11.542;2023-02-18T10:22:16;1.40;;;1.20;;
45011;SDS011;63444;48.148;11.542;2023-02-18T10:24:49;1.20;;;1.10;;
45011;SDS011;63444;48.148;11.542;2023-02-18T10:27:17;3.30;;;1.10;;
45011;SDS011;63444;48.148;11.542;2023-02-18T10:29:48;3.00;;;1.17;;
45011;SDS011;63444;48.148;11.542;2023-02-18T10:32:26;1.77;;;1.10;;
45011;SDS011;63444;48.148;11.542;2023-02-18T10:35:05;4.33;;;1.17;;
45011;SDS011;63444;48.148;11.542;2023-02-18T10:43:51;1.20;;;1.10;;
45011;SDS011;63444;48.148;11.542;2023-02-18T10:51:44;2.90;;;1.20;;
45011;SDS011;63444;48.148;11.542;2023-02-18T10:54:14;2.40;;;1.00;;
45011;SDS011;63444;48.148;11.542;2023-02-18T10:56:47;1.35;;;0.93;;
45011;SDS011;63444;48.148;11.542;2023-02-18T10:59:25;4.03;;;1.02;;
45011;SDS011;63444;48.148;11.542;2023-02-18T11:01:56;2.72;;;1.00;;
45011;SDS011;63444;48.148;11.542;2023-02-18T11:04:27;2.78;;;1.02;;
45011;SDS011;63444;48.148;11.542;2023-02-18T11:07:04;2.15;;;1.10;;
45011;SDS011;63444;48.148;11.542;2023-02-18T11:12:11;3.25;;;1.30;;
45011;SDS011;63444;48.148;11.542;2023-02-18T11:14:49;1.02;;;0.82;;
45011;SDS011;63444;48.148;11.542;2023-02-18T11:17:31;2.17;;;0.90;;
45011;SDS011;63444;48.148;11.542;2023-02-18T11:20:02;2.63;;;1.00;;
45011;SDS011;63444;48.148;11.542;2023-02-18T11:22:44;2.00;;;1.10;;
45011;SDS011;63444;48.148;11.542;2023-02-18T11:25:22;2.17;;;0.90;;
45011;SDS011;63444;48.148;11.542;2023-02-18T11:28:39;0.95;;;0.90;;
45011;SDS011;63444;48.148;11.542;2023-02-18T11:30:42;2.22;;;1.00;;
45011;SDS011;63444;48.148;11.542;2023-02-18T11:35:53;1.80;;;1.13;;
45011;SDS011;63444;48.148;11.542;2023-02-18T11:38:34;2.03;;;0.90;;
45011;SDS011;63444;48.148;11.542;2023-02-18T11:41:37;1.13;;;1.00;;
45011;SDS011;63444;48.148;11.542;2023-02-18T11:44:18;1.60;;;0.98;;
45011;SDS011;63444;48.148;11.542;2023-02-18T11:49:37;1.20;;;0.82;;
45011;SDS011;63444;48.148;11.542;2023-02-18T11:52:27;2.85;;;1.00;;
45011;SDS011;63444;48.148;11.542;2023-02-18T11:55:02;2.63;;;0.90;;
45011;SDS011;63444;48.148;11.542;2023-02-18T11:57:37;2.20;;;0.90;;
45011;SDS011;63444;48.148;11.542;2023-02-18T12:00:15;2.37;;;1.00;;
45011;SDS011;63444;48.148;11.542;2023-02-18T12:02:46;3.03;;;1.13;;
45011;SDS011;63444;48.148;11.542;2023-02-18T12:05:25;0.80;;;0.80;;
45011;SDS011;63444;48.148;11.542;2023-02-18T12:10:33;1.20;;;1.00;;
45011;SDS011;63444;48.148;11.542;2023-02-18T12:16:17;2.70;;;0.90;;
45011;SDS011;63444;48.148;11.542;2023-02-18T12:21:56;2.63;;;1.00;;
45011;SDS011;63444;48.148;11.542;2023-02-18T12:57:59;1.67;;;1.10;;
45011;SDS011;63444;48.148;11.542;2023-02-18T13:00:47;3.97;;;1.00;;
45011;SDS011;63444;48.148;11.542;2023-02-18T13:03:26;3.17;;;1.00;;
45011;SDS011;63444;48.148;11.542;2023-02-18T13:12:04;1.97;;;1.20;;
45011;SDS011;63444;48.148;11.542;2023-02-18T13:14:44;4.30;;;1.13;;
45011;SDS011;63444;48.148;11.542;2023-02-18T13:17:21;4.00;;;1.20;;
45011;SDS011;63444;48.148;11.542;2023-02-18T13:22:19;3.50;;;0.90;;
45011;SDS011;63444;48.148;11.542;2023-02-18T13:24:48;1.90;;;0.97;;
45011;SDS011;63444;48.148;11.542;2023-02-18T13:27:20;3.97;;;1.10;;
45011;SDS011;63444;48.148;11.542;2023-02-18T13:35:24;3.53;;;1.30;;
45011;SDS011;63444;48.148;11.542;2023-02-18T13:41:07;4.10;;;1.10;;
45011;SDS011;63444;48.148;11.542;2023-02-18T13:43:34;3.40;;;1.10;;
45011;SDS011;63444;48.148;11.542;2023-02-18T13:46:21;4.43;;;1.33;;
45011;SDS011;63444;48.148;11.542;2023-02-18T13:49:09;6.47;;;1.27;;
45011;SDS011;63444;48.148;11.542;2023-02-18T13:51:43;1.03;;;1.00;;
45011;SDS011;63444;48.148;11.542;2023-02-18T13:56:39;3.63;;;1.20;;
45011;SDS011;63444;48.148;11.542;2023-02-18T13:59:09;2.73;;;1.00;;
45011;SDS011;63444;48.148;11.542;2023-02-18T14:01:44;0.93;;;0.80;;
45011;SDS011;63444;48.148;11.542;2023-02-18T14:07:25;3.97;;;1.40;;
45011;SDS011;63444;48.148;11.542;2023-02-18T14:09:59;22.73;;;2.27;;
45011;SDS011;63444;48.148;11.542;2023-02-18T14:12:40;5.23;;;1.47;;
45011;SDS011;63444;48.148;11.542;2023-02-18T14:17:48;6.00;;;1.20;;
45011;SDS011;63444;48.148;11.542;2023-02-18T14:23:07;2.43;;;1.20;;
45011;SDS011;63444;48.148;11.542;2023-02-18T14:25:57;10.93;;;1.30;;
45011;SDS011;63444;48.148;11.542;2023-02-18T14:33:43;15.93;;;1.43;;
45011;SDS011;63444;48.148;11.542;2023-02-18T14:42:25;6.10;;;1.40;;
45011;SDS011;63444;48.148;11.542;2023-02-18T14:51:15;1.93;;;1.20;;
45011;SDS011;63444;48.148;11.542;2023-02-18T14:53:45;9.83;;;1.40;;
45011;SDS011;63444;48.148;11.542;2023-02-18T14:56:13;5.07;;;1.40;;
45011;SDS011;63444;48.148;11.542;2023-02-18T14:58:44;2.30;;;1.23;;
45011;SDS011;63444;48.148;11.542;2023-02-18T15:03:55;6.23;;;1.43;;
45011;SDS011;63444;48.148;11.542;2023-02-18T15:06:27;6.23;;;1.20;;
45011;SDS011;63444;48.148;11.542;2023-02-18T15:09:00;4.20;;;1.30;;
45011;SDS011;63444;48.148;11.542;2023-02-18T15:11:43;1.27;;;1.10;;
45011;SDS011;63444;48.148;11.542;2023-02-18T15:14:35;1.50;;;1.40;;
45011;SDS011;63444;48.148;11.542;2023-02-18T15:17:04;16.27;;;1.77;;
45011;SDS011;63444;48.148;11.542;2023-02-18T15:19:36;1.00;;;1.00;;
45011;SDS011;63444;48.148;11.542;2023-02-18T15:22:15;3.03;;;1.20;;
45011;SDS011;63444;48.148;11.542;2023-02-18T15:24:43;1.83;;;1.13;;
45011;SDS011;63444;48.148;11.542;2023-02-18T15:27:10;4.70;;;1.43;;
45011;SDS011;63444;48.148;11.542;2023-02-18T15:29:41;1.43;;;1.10;;
45011;SDS011;63444;48.148;11.542;2023-02-18T15:32:15;1.07;;;1.00;;
45011;SDS011;63444;48.148;11.542;2023-02-18T15:34:48;2.27;;;1.30;;
45011;SDS011;63444;48.148;11.542;2023-02-18T15:37:19;1.00;;;1.00;;
45011;SDS011;63444;48.148;11.542;2023-02-18T15:39:44;2.33;;;1.00;;
45011;SDS011;63444;48.148;11.542;2023-02-18T15:44:55;3.47;;;1.20;;
45011;SDS011;63444;48.148;11.542;2023-02-18T15:47:50;2.40;;;0.80;;
45011;SDS011;63444;48.148;11.542;2023-02-18T15:50:19;1.97;;;1.10;;
45011;SDS011;63444;48.148;11.542;2023-02-18T15:52:47;1.40;;;1.10;;
45011;SDS011;63444;48.148;11.542;2023-02-18T15:55:18;2.47;;;1.10;;
45011;SDS011;63444;48.148;11.542;2023-02-18T15:57:55;1.10;;;1.10;;
45011;SDS011;63444;48.148;11.542;2023-02-18T16:03:14;1.60;;;1.07;;
45011;SDS011;63444;48.148;11.542;2023-02-18T16:05:46;1.63;;;1.10;;
45011;SDS011;63444;48.148;11.542;2023-02-18T16:08:15;1.73;;;1.10;;
45011;SDS011;63444;48.148;11.542;2023-02-18T16:11:08;2.93;;;1.10;;
45011;SDS011;63444;48.148;11.542;2023-02-18T16:13:34;2.97;;;1.10;;
45011;SDS011;63444;48.148;11.542;2023-02-18T16:16:02;3.70;;;1.20;;
45011;SDS011;63444;48.148;11.542;2023-02-18T16:18:29;3.23;;;0.90;;
45011;SDS011;63444;48.148;11.542;2023-02-18T16:20:59;4.23;;;1.07;;
45011;SDS011;63444;48.148;11.542;2023-02-18T16:23:40;0.90;;;0.90;;
45011;SDS011;63444;48.148;11.542;2023-02-18T16:26:27;0.90;;;0.90;;
45011;SDS011;63444;48.148;11.542;2023-02-18T16:29:01;1.10;;;1.00;;
45011;SDS011;63444;48.148;11.542;2023-02-18T16:31:45;3.47;;;1.00;;
45011;SDS011;63444;48.148;11.542;2023-02-18T16:34:10;1.17;;;1.07;;
45011;SDS011;63444;48.148;11.542;2023-02-18T16:36:36;1.50;;;1.00;;
45011;SDS011;63444;48.148;11.542;2023-02-18T16:39:21;1.40;;;1.10;;
45011;SDS011;63444;48.148;11.542;2023-02-18T16:41:47;1.50;;;1.00;;
45011;SDS011;63444;48.148;11.542;2023-02-18T16:44:13;2.13;;;1.30;;
45011;SDS011;63444;48.148;11.542;2023-02-18T16:46:39;4.77;;;1.20;;
45011;SDS011;63444;48.148;11.542;2023-02-18T16:49:07;2.40;;;1.33;;
45011;SDS011;63444;48.148;11.542;2023-02-18T16:51:37;1.00;;;1.00;;
45011;SDS011;63444;48.148;11.542;2023-02-18T16:54:03;2.53;;;1.30;;
45011;SDS011;63444;48.148;11.542;2023-02-18T16:56:30;1.83;;;1.00;;
45011;SDS011;63444;48.148;11.542;2023-02-18T16:58:57;4.40;;;1.10;;
45011;SDS011;63444;48.148;11.542;2023-02-18T17:03:55;1.70;;;1.10;;
45011;SDS011;63444;48.148;11.542;2023-02-18T17:06:23;3.40;;;1.10;;
45011;SDS011;63444;48.148;11.542;2023-02-18T17:08:49;1.77;;;1.00;;
45011;SDS011;63444;48.148;11.542;2023-02-18T17:11:25;2.40;;;1.40;;
45011;SDS011;63444;48.148;11.542;2023-02-18T17:13:56;1.50;;;1.10;;
45011;SDS011;63444;48.148;11.542;2023-02-18T17:16:26;2.27;;;1.20;;
45011;SDS011;63444;48.148;11.542;2023-02-18T17:18:51;3.83;;;1.20;;
45011;SDS011;63444;48.148;11.542;2023-02-18T17:21:18;1.73;;;0.90;;
45011;SDS011;63444;48.148;11.542;2023-02-18T17:23:48;1.20;;;1.10;;
45011;SDS011;63444;48.148;11.542;2023-02-18T17:26:18;1.20;;;1.10;;
45011;SDS011;63444;48.148;11.542;2023-02-18T17:28:53;1.40;;;1.20;;
45011;SDS011;63444;48.148;11.542;2023-02-18T17:31:28;3.00;;;1.10;;
45011;SDS011;63444;48.148;11.542;2023-02-18T17:33:57;2.27;;;1.30;;
45011;SDS011;63444;48.148;11.542;2023-02-18T17:36:25;3.27;;;1.23;;